Airfield :
LOGIN :

Register | Disclaimer

   EN    FR    IT 

 










Legend :    VFR   Marginal VFR   IFR   Intensive IFR   Very Intensive IFR
Visi :
Ceiling :
>= 8 km
>= 3000ft
5 to 8 km
1000 to 3000 ft
1500m to 5 km
500 to 1000 ft
800 to 1500m
200 to 500 ft
< 800m
< 200 ft
Symbols :   Thunderstorms  Fog  Heavy snow  Heavy precipitations  Wind > 20 kt
SIGMETs :     Misc.  Thunderstorms  Icing  Turbulence  Mountain Waves  Volcanic Ashes







- Airport Elevation : 302 ft
- IATA code : CGN


EDDK - Cologne Bonn

CURRENT METAR :
  • 170550Z 12004KT 080V150 CAVOK 17/15 Q1017 NOSIG

EXPIRED METARs :
  • 170520Z 11004KT 070V170 CAVOK 17/15 Q1017 NOSIG
  • 170450Z 12005KT 060V160 CAVOK 16/15 Q1017 NOSIG
  • 170420Z VRB02KT 9999 MIFG NSC 16/15 Q1017 NOSIG
  • 170350Z 00000KT 9999 MIFG NSC 15/14 Q1018 NOSIG
  • 170320Z 11003KT 080V150 9999 MIFG NSC 16/15 Q1018 NOSIG
  • 170302Z VRB02KT 9999 MIFG NSC 16/15 Q1018 NOSIG
  • 170259Z VRB02KT 9999 MIFG NSC 16/15 Q1018 NOSIG
  • 170250Z VRB01KT 9999 MIFG NSC 16/15 Q1018 NOSIG

TAF TAF EDDK
Valid from the 17 at 06:00 until the 18 at 12:00 UTC


170500Z 1706/1812 13005KT 9999 SCT045
TEMPO 1710/1718 20010KT RA
No reported NOTAMs for that airfield.



MET'MAP, your aeronautical weather chart ! - Copyright ORBIFLY December 2007 - Disclaimer

ORBIFLY MET'MAP TEAM :

Programming & Development : Alexandra Zaïnal
Concept & Development : Baudouin d'Aumeries
Co-Development & Prog : Marc-Olivier Méhu
Technical & hardware support : Manuel Goepfert

Contact : metmap@orbifly.com




SOURCES & CREDITS :

   NOAA